PWSweather.com
Personal Weather Stations
Station Observations
RAINWISE1
Rainwise Factory, Bar Harbor, ME 04609

Rainwise FactoryBar Harbor, ME 04609

Lat: 44.3897429696629, Lon: -68.2077813148499

Elevation: 29

Station Type: Rainwise MK-III

Latest ConditionsUpdated 9:24:00 AM EDT Saturday, Mar 25, 2017
Currently Today's Max Today's Min Today's Average
Temperature 35.2°F1.8°C 35.3°F1.8°C 28.3°F-2.1°C 32.0°F0.0°C
Dew Point 31.2°F-0.4°C 33.7°F0.9°C 28.1°F-2.2°C 31.5°F-0.3°C
Winds 5.2 mph N8.4 kmh N 6.4 mph NNW10.3 kmh NNW - 2.7 mph 4.3 kmh
Wind Gusts 8.2 mph13.2 kmh 9.3 mph15.0 kmh - -
Humidity 85% 100% 85% 98%
Pressure 30.22 in1023.4 mb 30.22 in1023.4 mb 30.04 in1017.3 mb -
Precipitation - 0.02 in0.5 mm - -
Hour Temp Dew Point Humidity Winds Wind Gusts Pressure Precip Precip Rate Daily Precip Total
09:24 AM 35.2°F1.8°C 31.2°F-0.4°C 85% 5.2 mph N8.4 kmh N 8.2 mph13.2 kmh 30.22 in1023.4 mb 0.00 in0.0 mm 0.00 in0.0 mm 0.02 in0.5 mm
09:19 AM 35.2°F1.8°C 31.2°F-0.4°C 85% 5.0 mph N8.0 kmh N 7.0 mph11.3 kmh 30.22 in1023.4 mb 0.00 in0.0 mm 0.00 in0.0 mm 0.02 in0.5 mm
09:14 AM 35.2°F1.8°C 31.2°F-0.4°C 85% 5.4 mph NNE8.7 kmh NNE 7.5 mph12.1 kmh 30.22 in1023.4 mb 0.00 in0.0 mm 0.00 in0.0 mm 0.02 in0.5 mm
09:09 AM 35.1°F1.7°C 31.1°F-0.5°C 85% 4.9 mph N7.9 kmh N 7.6 mph12.2 kmh 30.22 in1023.4 mb 0.00 in0.0 mm 0.00 in0.0 mm 0.02 in0.5 mm
09:04 AM 35.3°F1.8°C 31.5°F-0.3°C 86% 5.3 mph N8.5 kmh N 7.7 mph12.4 kmh 30.22 in1023.4 mb 0.00 in0.0 mm 0.00 in0.0 mm 0.02 in0.5 mm
08:59 AM 35.1°F1.7°C 31.3°F-0.4°C 86% 4.5 mph N7.2 kmh N 6.8 mph10.9 kmh 30.22 in1023.4 mb 0.00 in0.0 mm 0.00 in0.0 mm 0.01 in0.3 mm
08:54 AM 34.7°F1.5°C 31.2°F-0.4°C 87% 4.6 mph N7.4 kmh N 6.5 mph10.5 kmh 30.22 in1023.4 mb 0.00 in0.0 mm 0.00 in0.0 mm 0.01 in0.3 mm
08:49 AM 34.7°F1.5°C 31.2°F-0.4°C 87% 5.1 mph NNE8.2 kmh NNE 7.4 mph11.9 kmh 30.22 in1023.4 mb 0.00 in0.0 mm 0.00 in0.0 mm 0.01 in0.3 mm
08:44 AM 34.9°F1.6°C 31.7°F-0.2°C 88% 5.1 mph NNE8.2 kmh NNE 7.2 mph11.6 kmh 30.22 in1023.4 mb 0.00 in0.0 mm 0.00 in0.0 mm 0.01 in0.3 mm
08:39 AM 34.7°F1.5°C 32.1°F0.1°C 90% 3.4 mph N5.5 kmh N 5.4 mph8.7 kmh 30.21 in1023.0 mb 0.00 in0.0 mm 0.00 in0.0 mm 0.01 in0.3 mm
08:34 AM 33.8°F1.0°C 31.5°F-0.3°C 91% 2.5 mph N4.0 kmh N 4.2 mph6.8 kmh 30.21 in1023.0 mb 0.00 in0.0 mm 0.00 in0.0 mm 0.01 in0.3 mm
08:29 AM 33.0°F0.6°C 30.9°F-0.6°C 92% 3.1 mph N5.0 kmh N 4.8 mph7.7 kmh 30.21 in1023.0 mb 0.00 in0.0 mm 0.00 in0.0 mm 0.01 in0.3 mm
08:24 AM 32.7°F0.4°C 30.6°F-0.8°C 92% 3.8 mph NNE6.1 kmh NNE 5.9 mph9.5 kmh 30.20 in1022.7 mb 0.00 in0.0 mm 0.00 in0.0 mm 0.01 in0.3 mm
08:19 AM 32.7°F0.4°C 30.9°F-0.6°C 93% 4.4 mph NNE7.1 kmh NNE 6.6 mph10.6 kmh 30.20 in1022.7 mb 0.00 in0.0 mm 0.00 in0.0 mm 0.01 in0.3 mm
08:14 AM 32.7°F0.4°C 31.2°F-0.4°C 94% 5.0 mph N8.0 kmh N 6.5 mph10.5 kmh 30.20 in1022.7 mb 0.00 in0.0 mm 0.00 in0.0 mm 0.01 in0.3 mm
08:09 AM 32.5°F0.3°C 31.2°F-0.4°C 95% 4.5 mph NNE7.2 kmh NNE 6.5 mph10.5 kmh 30.20 in1022.7 mb 0.00 in0.0 mm 0.00 in0.0 mm 0.01 in0.3 mm
08:04 AM 32.1°F0.1°C 31.1°F-0.5°C 96% 4.9 mph N7.9 kmh N 6.9 mph11.1 kmh 30.20 in1022.7 mb 0.00 in0.0 mm 0.00 in0.0 mm 0.01 in0.3 mm
07:59 AM 31.8°F-0.1°C 31.0°F-0.6°C 97% 5.1 mph NNE8.2 kmh NNE 7.6 mph12.2 kmh 30.19 in1022.4 mb 0.00 in0.0 mm 0.00 in0.0 mm 0.01 in0.3 mm
07:54 AM 31.7°F-0.2°C 30.9°F-0.6°C 97% 5.3 mph N8.5 kmh N 7.1 mph11.4 kmh 30.19 in1022.4 mb 0.00 in0.0 mm 0.00 in0.0 mm 0.01 in0.3 mm
07:49 AM 31.7°F-0.2°C 31.2°F-0.4°C 98% 3.7 mph N6.0 kmh N 5.0 mph8.0 kmh 30.19 in1022.4 mb 0.00 in0.0 mm 0.00 in0.0 mm 0.01 in0.3 mm
07:44 AM 31.7°F-0.2°C 31.5°F-0.3°C 99% 2.6 mph N4.2 kmh N 4.0 mph6.4 kmh 30.18 in1022.0 mb 0.00 in0.0 mm 0.00 in0.0 mm 0.01 in0.3 mm
07:39 AM 31.7°F-0.2°C 31.5°F-0.3°C 99% 1.5 mph NNE2.4 kmh NNE 2.3 mph3.7 kmh 30.19 in1022.4 mb 0.00 in0.0 mm 0.00 in0.0 mm 0.01 in0.3 mm
07:34 AM 31.5°F-0.3°C 31.3°F-0.4°C 99% 1.6 mph NNW2.6 kmh NNW 2.2 mph3.5 kmh 30.18 in1022.0 mb 0.00 in0.0 mm 0.00 in0.0 mm 0.01 in0.3 mm
07:29 AM 30.9°F-0.6°C 30.7°F-0.7°C 99% 1.5 mph NNW2.4 kmh NNW 2.0 mph3.2 kmh 30.17 in1021.7 mb 0.00 in0.0 mm 0.00 in0.0 mm 0.01 in0.3 mm
07:24 AM 30.2°F-1.0°C 30.0°F-1.1°C 99% 0.7 mph NNW1.1 kmh NNW 1.2 mph1.9 kmh 30.17 in1021.7 mb 0.00 in0.0 mm 0.00 in0.0 mm 0.01 in0.3 mm
07:19 AM 29.7°F-1.3°C 29.5°F-1.4°C 99% Calm Calm -- 30.17 in1021.7 mb 0.00 in0.0 mm 0.00 in0.0 mm 0.01 in0.3 mm
07:14 AM 29.2°F-1.6°C 29.0°F-1.7°C 99% Calm Calm -- 30.16 in1021.3 mb 0.00 in0.0 mm 0.00 in0.0 mm 0.01 in0.3 mm
07:09 AM 28.9°F-1.7°C 28.7°F-1.8°C 99% 0.6 mph NNW1.0 kmh NNW 1.9 mph3.1 kmh 30.16 in1021.3 mb 0.00 in0.0 mm 0.00 in0.0 mm 0.01 in0.3 mm
07:04 AM 28.6°F-1.9°C 28.4°F-2.0°C 99% Calm Calm -- 30.16 in1021.3 mb 0.00 in0.0 mm 0.00 in0.0 mm 0.01 in0.3 mm
06:59 AM 28.4°F-2.0°C 28.2°F-2.1°C 99% Calm Calm -- 30.16 in1021.3 mb 0.00 in0.0 mm 0.00 in0.0 mm 0.01 in0.3 mm
06:54 AM 28.3°F-2.1°C 28.1°F-2.2°C 99% Calm Calm -- 30.16 in1021.3 mb 0.00 in0.0 mm 0.00 in0.0 mm 0.01 in0.3 mm
06:49 AM 28.3°F-2.1°C 28.1°F-2.2°C 99% 0.2 mph NNW0.3 kmh NNW 0.7 mph1.1 kmh 30.16 in1021.3 mb 0.00 in0.0 mm 0.00 in0.0 mm 0.01 in0.3 mm
06:44 AM 28.6°F-1.9°C 28.4°F-2.0°C 99% 0.3 mph NNW0.5 kmh NNW 1.4 mph2.3 kmh 30.15 in1021.0 mb 0.00 in0.0 mm 0.00 in0.0 mm 0.01 in0.3 mm
06:39 AM 28.7°F-1.8°C 28.5°F-1.9°C 99% Calm Calm -- 30.15 in1021.0 mb 0.00 in0.0 mm 0.00 in0.0 mm 0.01 in0.3 mm
06:34 AM 28.8°F-1.8°C 28.6°F-1.9°C 99% 0.4 mph NNW0.6 kmh NNW 0.9 mph1.4 kmh 30.15 in1021.0 mb 0.00 in0.0 mm 0.00 in0.0 mm 0.01 in0.3 mm
06:29 AM 28.8°F-1.8°C 28.6°F-1.9°C 99% 0.2 mph NNW0.3 kmh NNW 0.4 mph0.6 kmh 30.14 in1020.7 mb 0.00 in0.0 mm 0.00 in0.0 mm 0.01 in0.3 mm
06:24 AM 29.0°F-1.7°C 28.8°F-1.8°C 99% 0.5 mph NNW0.8 kmh NNW 1.4 mph2.3 kmh 30.14 in1020.7 mb 0.00 in0.0 mm 0.00 in0.0 mm 0.01 in0.3 mm
06:19 AM 29.1°F-1.6°C 28.9°F-1.7°C 99% 2.4 mph NNW3.9 kmh NNW 4.0 mph6.4 kmh 30.13 in1020.3 mb 0.00 in0.0 mm 0.00 in0.0 mm 0.01 in0.3 mm
06:14 AM 29.1°F-1.6°C 28.9°F-1.7°C 99% 3.5 mph NNW5.6 kmh NNW 4.9 mph7.9 kmh 30.14 in1020.7 mb 0.00 in0.0 mm 0.00 in0.0 mm 0.01 in0.3 mm
06:09 AM 29.1°F-1.6°C 28.9°F-1.7°C 99% 3.1 mph NNW5.0 kmh NNW 4.5 mph7.2 kmh 30.14 in1020.7 mb 0.00 in0.0 mm 0.00 in0.0 mm 0.01 in0.3 mm
06:04 AM 29.2°F-1.6°C 29.0°F-1.7°C 99% 1.8 mph NNW2.9 kmh NNW 2.7 mph4.3 kmh 30.13 in1020.3 mb 0.00 in0.0 mm 0.00 in0.0 mm 0.01 in0.3 mm
05:59 AM 29.5°F-1.4°C 29.3°F-1.5°C 99% 1.8 mph NNW2.9 kmh NNW 2.3 mph3.7 kmh 30.13 in1020.3 mb 0.00 in0.0 mm 0.00 in0.0 mm 0.01 in0.3 mm
05:54 AM 29.8°F-1.2°C 29.6°F-1.3°C 99% 0.2 mph NNW0.3 kmh NNW 0.5 mph0.8 kmh 30.12 in1020.0 mb 0.00 in0.0 mm 0.00 in0.0 mm 0.01 in0.3 mm
05:49 AM 29.8°F-1.2°C 29.6°F-1.3°C 99% Calm Calm 0.7 mph1.1 kmh 30.12 in1020.0 mb 0.00 in0.0 mm 0.00 in0.0 mm 0.01 in0.3 mm
05:44 AM 30.1°F-1.1°C 29.9°F-1.2°C 99% 1.5 mph NNW2.4 kmh NNW 2.8 mph4.5 kmh 30.11 in1019.6 mb 0.00 in0.0 mm 0.00 in0.0 mm 0.01 in0.3 mm
05:39 AM 30.3°F-0.9°C 30.3°F-0.9°C 100% 2.7 mph NNW4.3 kmh NNW 4.1 mph6.6 kmh 30.12 in1020.0 mb 0.00 in0.0 mm 0.00 in0.0 mm 0.01 in0.3 mm
05:34 AM 30.4°F-0.9°C 30.4°F-0.9°C 100% 2.8 mph NNW4.5 kmh NNW 4.0 mph6.4 kmh 30.11 in1019.6 mb 0.00 in0.0 mm 0.00 in0.0 mm 0.01 in0.3 mm
05:29 AM 30.3°F-0.9°C 30.3°F-0.9°C 100% 3.7 mph NNW6.0 kmh NNW 5.5 mph8.9 kmh 30.11 in1019.6 mb 0.00 in0.0 mm 0.00 in0.0 mm 0.01 in0.3 mm
05:24 AM 30.3°F-0.9°C 30.3°F-0.9°C 100% 4.7 mph NNW7.6 kmh NNW 6.6 mph10.6 kmh 30.11 in1019.6 mb 0.00 in0.0 mm 0.00 in0.0 mm 0.01 in0.3 mm
05:19 AM 30.3°F-0.9°C 30.3°F-0.9°C 100% 4.3 mph NNW6.9 kmh NNW 6.5 mph10.5 kmh 30.10 in1019.3 mb 0.00 in0.0 mm 0.00 in0.0 mm 0.01 in0.3 mm
05:14 AM 30.7°F-0.7°C 30.7°F-0.7°C 100% 1.6 mph NNE2.6 kmh NNE 2.8 mph4.5 kmh 30.10 in1019.3 mb 0.00 in0.0 mm 0.00 in0.0 mm 0.01 in0.3 mm
05:09 AM 30.8°F-0.7°C 30.8°F-0.7°C 100% 2.6 mph NNE4.2 kmh NNE 4.4 mph7.1 kmh 30.09 in1019.0 mb 0.00 in0.0 mm 0.00 in0.0 mm 0.01 in0.3 mm
05:04 AM 31.0°F-0.6°C 31.0°F-0.6°C 100% 2.1 mph NNE3.4 kmh NNE 3.3 mph5.3 kmh 30.09 in1019.0 mb 0.00 in0.0 mm 0.00 in0.0 mm 0.01 in0.3 mm
04:59 AM 31.1°F-0.5°C 31.1°F-0.5°C 100% 2.9 mph N4.7 kmh N 4.3 mph6.9 kmh 30.09 in1019.0 mb 0.00 in0.0 mm 0.00 in0.0 mm 0.01 in0.3 mm
04:54 AM 31.1°F-0.5°C 31.1°F-0.5°C 100% 4.1 mph N6.6 kmh N 5.5 mph8.9 kmh 30.08 in1018.6 mb 0.00 in0.0 mm 0.00 in0.0 mm 0.01 in0.3 mm
04:49 AM 31.2°F-0.4°C 31.2°F-0.4°C 100% 5.2 mph NNW8.4 kmh NNW 7.5 mph12.1 kmh 30.08 in1018.6 mb 0.00 in0.0 mm 0.00 in0.0 mm 0.01 in0.3 mm
04:44 AM 31.2°F-0.4°C 31.2°F-0.4°C 100% 5.4 mph NNW8.7 kmh NNW 7.3 mph11.7 kmh 30.08 in1018.6 mb 0.00 in0.0 mm 0.00 in0.0 mm 0.01 in0.3 mm
04:39 AM 31.3°F-0.4°C 31.3°F-0.4°C 100% 4.4 mph NNW7.1 kmh NNW 6.3 mph10.1 kmh 30.08 in1018.6 mb 0.00 in0.0 mm 0.00 in0.0 mm 0.01 in0.3 mm
04:34 AM 31.5°F-0.3°C 31.5°F-0.3°C 100% 3.5 mph NNW5.6 kmh NNW 4.5 mph7.2 kmh 30.08 in1018.6 mb 0.00 in0.0 mm 0.00 in0.0 mm 0.01 in0.3 mm
04:29 AM 31.6°F-0.2°C 31.6°F-0.2°C 100% 3.3 mph N5.3 kmh N 4.5 mph7.2 kmh 30.08 in1018.6 mb 0.00 in0.0 mm 0.00 in0.0 mm 0.01 in0.3 mm
04:24 AM 31.6°F-0.2°C 31.6°F-0.2°C 100% 3.5 mph NNW5.6 kmh NNW 5.2 mph8.4 kmh 30.07 in1018.3 mb 0.00 in0.0 mm 0.00 in0.0 mm 0.01 in0.3 mm
04:19 AM 31.7°F-0.2°C 31.7°F-0.2°C 100% 2.8 mph N4.5 kmh N 3.9 mph6.3 kmh 30.08 in1018.6 mb 0.00 in0.0 mm 0.00 in0.0 mm 0.01 in0.3 mm
04:14 AM 31.8°F-0.1°C 31.8°F-0.1°C 100% 4.0 mph N6.4 kmh N 5.2 mph8.4 kmh 30.08 in1018.6 mb 0.00 in0.0 mm 0.00 in0.0 mm 0.01 in0.3 mm
04:09 AM 31.8°F-0.1°C 31.8°F-0.1°C 100% 3.8 mph N6.1 kmh N 6.0 mph9.7 kmh 30.07 in1018.3 mb 0.00 in0.0 mm 0.00 in0.0 mm 0.01 in0.3 mm
04:04 AM 32.0°F0.0°C 32.0°F0.0°C 100% 4.5 mph N7.2 kmh N 6.3 mph10.1 kmh 30.08 in1018.6 mb 0.00 in0.0 mm 0.00 in0.0 mm 0.01 in0.3 mm
03:59 AM 32.0°F0.0°C 32.0°F0.0°C 100% 5.6 mph N9.0 kmh N 7.9 mph12.7 kmh 30.07 in1018.3 mb 0.00 in0.0 mm 0.00 in0.0 mm 0.01 in0.3 mm
03:54 AM 32.0°F0.0°C 32.0°F0.0°C 100% 5.7 mph N9.2 kmh N 8.0 mph12.9 kmh 30.07 in1018.3 mb 0.00 in0.0 mm 0.00 in0.0 mm 0.01 in0.3 mm
03:49 AM 32.0°F0.0°C 32.0°F0.0°C 100% 6.0 mph N9.7 kmh N 9.1 mph14.6 kmh 30.07 in1018.3 mb 0.00 in0.0 mm 0.00 in0.0 mm 0.01 in0.3 mm
03:44 AM 32.0°F0.0°C 32.0°F0.0°C 100% 6.4 mph NNW10.3 kmh NNW 9.3 mph15.0 kmh 30.06 in1017.9 mb 0.00 in0.0 mm 0.00 in0.0 mm 0.01 in0.3 mm
03:39 AM 32.0°F0.0°C 32.0°F0.0°C 100% 5.6 mph NNW9.0 kmh NNW 8.1 mph13.0 kmh 30.06 in1017.9 mb 0.00 in0.0 mm 0.00 in0.0 mm 0.01 in0.3 mm
03:34 AM 32.1°F0.1°C 32.1°F0.1°C 100% 4.4 mph N7.1 kmh N 6.1 mph9.8 kmh 30.06 in1017.9 mb 0.00 in0.0 mm 0.00 in0.0 mm 0.00 in0.0 mm
03:29 AM 32.1°F0.1°C 32.1°F0.1°C 100% 3.8 mph N6.1 kmh N 5.3 mph8.5 kmh 30.06 in1017.9 mb 0.00 in0.0 mm 0.00 in0.0 mm 0.00 in0.0 mm
03:24 AM 32.2°F0.1°C 32.2°F0.1°C 100% 2.9 mph NNW4.7 kmh NNW 4.0 mph6.4 kmh 30.06 in1017.9 mb 0.00 in0.0 mm 0.00 in0.0 mm 0.00 in0.0 mm
03:19 AM 32.5°F0.3°C 32.5°F0.3°C 100% 2.4 mph N3.9 kmh N 3.2 mph5.1 kmh 30.06 in1017.9 mb 0.00 in0.0 mm 0.00 in0.0 mm 0.00 in0.0 mm
03:14 AM 32.6°F0.3°C 32.6°F0.3°C 100% 2.3 mph NNE3.7 kmh NNE 3.3 mph5.3 kmh 30.06 in1017.9 mb 0.00 in0.0 mm 0.00 in0.0 mm 0.00 in0.0 mm
03:09 AM 32.6°F0.3°C 32.6°F0.3°C 100% 3.1 mph N5.0 kmh N 4.6 mph7.4 kmh 30.06 in1017.9 mb 0.00 in0.0 mm 0.00 in0.0 mm 0.00 in0.0 mm
03:04 AM 32.6°F0.3°C 32.6°F0.3°C 100% 3.1 mph N5.0 kmh N 4.1 mph6.6 kmh 30.06 in1017.9 mb 0.00 in0.0 mm 0.00 in0.0 mm 0.00 in0.0 mm
02:59 AM 32.7°F0.4°C 32.7°F0.4°C 100% 1.5 mph NNW2.4 kmh NNW 3.3 mph5.3 kmh 30.06 in1017.9 mb 0.00 in0.0 mm 0.00 in0.0 mm 0.00 in0.0 mm
02:54 AM 32.7°F0.4°C 32.7°F0.4°C 100% 1.5 mph NE2.4 kmh NE 2.7 mph4.3 kmh 30.06 in1017.9 mb 0.00 in0.0 mm 0.00 in0.0 mm 0.00 in0.0 mm
02:49 AM 32.7°F0.4°C 32.7°F0.4°C 100% 1.9 mph NE3.1 kmh NE 2.7 mph4.3 kmh 30.06 in1017.9 mb 0.00 in0.0 mm 0.00 in0.0 mm 0.00 in0.0 mm
02:44 AM 32.6°F0.3°C 32.6°F0.3°C 100% 1.2 mph NNE1.9 kmh NNE 1.8 mph2.9 kmh 30.07 in1018.3 mb 0.00 in0.0 mm 0.00 in0.0 mm 0.00 in0.0 mm
02:39 AM 32.6°F0.3°C 32.6°F0.3°C 100% 1.8 mph N2.9 kmh N 2.7 mph4.3 kmh 30.06 in1017.9 mb 0.00 in0.0 mm 0.00 in0.0 mm 0.00 in0.0 mm
02:34 AM 32.7°F0.4°C 32.7°F0.4°C 100% 2.1 mph NNW3.4 kmh NNW 3.1 mph5.0 kmh 30.05 in1017.6 mb 0.00 in0.0 mm 0.00 in0.0 mm 0.00 in0.0 mm
02:29 AM 32.7°F0.4°C 32.7°F0.4°C 100% 1.1 mph NNE1.8 kmh NNE 2.0 mph3.2 kmh 30.04 in1017.3 mb 0.00 in0.0 mm 0.00 in0.0 mm 0.00 in0.0 mm
02:24 AM 32.7°F0.4°C 32.7°F0.4°C 100% 1.3 mph NNE2.1 kmh NNE 2.4 mph3.9 kmh 30.05 in1017.6 mb 0.00 in0.0 mm 0.00 in0.0 mm 0.00 in0.0 mm
02:19 AM 32.8°F0.4°C 32.8°F0.4°C 100% 1.5 mph ENE2.4 kmh ENE 2.5 mph4.0 kmh 30.05 in1017.6 mb 0.00 in0.0 mm 0.00 in0.0 mm 0.00 in0.0 mm
02:14 AM 32.8°F0.4°C 32.8°F0.4°C 100% 0.9 mph NNW1.4 kmh NNW 1.9 mph3.1 kmh 30.06 in1017.9 mb 0.00 in0.0 mm 0.00 in0.0 mm 0.00 in0.0 mm
02:09 AM 33.0°F0.6°C 33.0°F0.6°C 100% 2.6 mph NNE4.2 kmh NNE 4.2 mph6.8 kmh 30.06 in1017.9 mb 0.00 in0.0 mm 0.00 in0.0 mm 0.00 in0.0 mm
02:04 AM 32.9°F0.5°C 32.9°F0.5°C 100% 4.2 mph N6.8 kmh N 6.5 mph10.5 kmh 30.06 in1017.9 mb 0.00 in0.0 mm 0.00 in0.0 mm 0.00 in0.0 mm
01:59 AM 33.0°F0.6°C 33.0°F0.6°C 100% 4.0 mph NNW6.4 kmh NNW 5.6 mph9.0 kmh 30.06 in1017.9 mb 0.00 in0.0 mm 0.00 in0.0 mm 0.00 in0.0 mm
01:54 AM 33.0°F0.6°C 33.0°F0.6°C 100% 3.5 mph N5.6 kmh N 4.9 mph7.9 kmh 30.06 in1017.9 mb 0.00 in0.0 mm 0.00 in0.0 mm 0.00 in0.0 mm
01:49 AM 32.8°F0.4°C 32.8°F0.4°C 100% 2.0 mph NNE3.2 kmh NNE 3.6 mph5.8 kmh 30.05 in1017.6 mb 0.00 in0.0 mm 0.00 in0.0 mm 0.00 in0.0 mm
01:44 AM 32.8°F0.4°C 32.8°F0.4°C 100% 0.2 mph NNW0.3 kmh NNW 0.5 mph0.8 kmh 30.05 in1017.6 mb 0.00 in0.0 mm 0.00 in0.0 mm 0.00 in0.0 mm
01:39 AM 33.0°F0.6°C 33.0°F0.6°C 100% 0.7 mph NNW1.1 kmh NNW 1.1 mph1.8 kmh 30.06 in1017.9 mb 0.00 in0.0 mm 0.00 in0.0 mm 0.00 in0.0 mm
01:34 AM 33.0°F0.6°C 33.0°F0.6°C 100% 1.7 mph NNW2.7 kmh NNW 2.2 mph3.5 kmh 30.06 in1017.9 mb 0.00 in0.0 mm 0.00 in0.0 mm 0.00 in0.0 mm
01:29 AM 33.0°F0.6°C 33.0°F0.6°C 100% 0.5 mph NNW0.8 kmh NNW 1.2 mph1.9 kmh 30.05 in1017.6 mb 0.00 in0.0 mm 0.00 in0.0 mm 0.00 in0.0 mm
01:24 AM 33.1°F0.6°C 33.1°F0.6°C 100% 0.5 mph NNW0.8 kmh NNW 1.5 mph2.4 kmh 30.06 in1017.9 mb 0.00 in0.0 mm 0.00 in0.0 mm 0.00 in0.0 mm
01:19 AM 33.1°F0.6°C 33.1°F0.6°C 100% 1.3 mph NNW2.1 kmh NNW 1.9 mph3.1 kmh 30.05 in1017.6 mb 0.00 in0.0 mm 0.00 in0.0 mm 0.00 in0.0 mm
01:14 AM 33.2°F0.7°C 33.2°F0.7°C 100% 1.9 mph NNW3.1 kmh NNW 2.6 mph4.2 kmh 30.05 in1017.6 mb 0.00 in0.0 mm 0.00 in0.0 mm 0.00 in0.0 mm
01:09 AM 33.2°F0.7°C 33.2°F0.7°C 100% 1.6 mph NNW2.6 kmh NNW 2.5 mph4.0 kmh 30.05 in1017.6 mb 0.00 in0.0 mm 0.00 in0.0 mm 0.00 in0.0 mm
01:04 AM 33.2°F0.7°C 33.2°F0.7°C 100% 1.3 mph NNW2.1 kmh NNW 2.4 mph3.9 kmh 30.05 in1017.6 mb 0.00 in0.0 mm 0.00 in0.0 mm 0.00 in0.0 mm
12:59 AM 33.2°F0.7°C 33.2°F0.7°C 100% 2.4 mph NNW3.9 kmh NNW 3.9 mph6.3 kmh 30.05 in1017.6 mb 0.00 in0.0 mm 0.00 in0.0 mm 0.00 in0.0 mm
12:54 AM 33.3°F0.7°C 33.3°F0.7°C 100% 2.1 mph NW3.4 kmh NW 3.1 mph5.0 kmh 30.06 in1017.9 mb 0.00 in0.0 mm 0.00 in0.0 mm 0.00 in0.0 mm
12:49 AM 33.5°F0.8°C 33.5°F0.8°C 100% 2.4 mph NNW3.9 kmh NNW 3.2 mph5.1 kmh 30.06 in1017.9 mb 0.00 in0.0 mm 0.00 in0.0 mm 0.00 in0.0 mm
12:44 AM 33.6°F0.9°C 33.6°F0.9°C 100% 2.5 mph NNW4.0 kmh NNW 3.3 mph5.3 kmh 30.06 in1017.9 mb 0.00 in0.0 mm 0.00 in0.0 mm 0.00 in0.0 mm
12:39 AM 33.6°F0.9°C 33.6°F0.9°C 100% 2.9 mph NNW4.7 kmh NNW 3.9 mph6.3 kmh 30.06 in1017.9 mb 0.00 in0.0 mm 0.00 in0.0 mm 0.00 in0.0 mm
12:34 AM 33.7°F0.9°C 33.7°F0.9°C 100% 4.3 mph NNW6.9 kmh NNW 6.4 mph10.3 kmh 30.07 in1018.3 mb 0.00 in0.0 mm 0.00 in0.0 mm 0.00 in0.0 mm
12:29 AM 33.6°F0.9°C 33.6°F0.9°C 100% 3.2 mph NNW5.1 kmh NNW 4.2 mph6.8 kmh 30.07 in1018.3 mb 0.00 in0.0 mm 0.00 in0.0 mm 0.00 in0.0 mm
12:24 AM 33.6°F0.9°C 33.6°F0.9°C 100% 3.2 mph NNW5.1 kmh NNW 4.7 mph7.6 kmh 30.06 in1017.9 mb 0.00 in0.0 mm 0.00 in0.0 mm 0.00 in0.0 mm
12:19 AM 33.6°F0.9°C 33.6°F0.9°C 100% 2.0 mph NNW3.2 kmh NNW 2.9 mph4.7 kmh 30.06 in1017.9 mb 0.00 in0.0 mm 0.00 in0.0 mm 0.00 in0.0 mm
12:14 AM 33.3°F0.7°C 33.3°F0.7°C 100% 1.8 mph NW2.9 kmh NW 3.4 mph5.5 kmh 30.07 in1018.3 mb 0.00 in0.0 mm 0.00 in0.0 mm 0.00 in0.0 mm
12:09 AM 33.1°F0.6°C 33.1°F0.6°C 100% Calm Calm 0.3 mph0.5 kmh 30.07 in1018.3 mb 0.00 in0.0 mm 0.00 in0.0 mm 0.00 in0.0 mm
12:04 AM 33.1°F0.6°C 33.1°F0.6°C 100% Calm Calm -- 30.06 in1017.9 mb 0.00 in0.0 mm 0.00 in0.0 mm 0.00 in0.0 mm